Berkeley, Illinois
Current Conditions -  °F | °C
As of 11:51 AM on Thursday 29 Jan 2015 (Local Time) from KORD Reporting Station
Overcast Overcast  
Wind Chill: 22°   Ceiling: 2200
Heat Index: 33°   Visibility: 9mi
Dew Point: 26°   Wind: 20mph
Humidity: 75%   Direction: 330°NNW
Pressure: 29.93"   Gusts: 25mph
Location:  41.88°N, 87.91°W
Report Text: KORD 291751Z 33017G22KT 9SM OVC022 01/M03 A2993 RMK AO2 PK WND 33030/1703 SLP143 4/001 60001 T00061033 10017 20000 51040
Loading
Personal Weather Stations






























Interactive Weather Map New forecast layout! Learn more

10-Day Weather Forecast

Advertisements
Track Severe Weather on mobile